Time;durP1;ratioP1;P1;durP2;ratioP2;P2;SDS_P1;SDS_P2;PMS_P1;PMS_P2;Temp;Humidity;BMP_temperature;BMP_pressure;BME280_temperature;BME280_humidity;BME280_pressure;Samples;Min_cycle;Max_cycle;Signal;HPM_P1;HPM_P2
2024/01/04 00:00:06;;;;;;;;;;;18.10;57.90;;;;;;7401105;19;1958;-73
2024/01/04 00:02:32;;;;;;;;;;;18.00;58.10;;;;;;7399712;19;2723;-73
2024/01/04 00:04:57;;;;;;;;;;;18.00;58.10;;;;;;7402355;19;3228;-73
2024/01/04 00:07:23;;;;;;;;;;;18.00;58.00;;;;;;7397663;19;1400;-73
2024/01/04 00:09:51;;;;;;;;;;;17.90;58.70;;;;;;7396217;19;3895;-73
2024/01/04 00:12:17;;;;;;;;;;;18.00;58.30;;;;;;7402073;19;2931;-73
2024/01/04 00:14:42;;;;;;;;;;;17.90;58.10;;;;;;7401762;19;1013;-73
2024/01/04 00:17:07;;;;;;;;;;;17.90;58.20;;;;;;7396674;19;4147;-73
2024/01/04 00:19:33;;;;;;;;;;;17.90;58.30;;;;;;7400098;19;3538;-73
2024/01/04 00:21:58;;;;;;;;;;;17.90;58.40;;;;;;7400674;19;1172;-73
2024/01/04 00:24:24;;;;;;;;;;;17.80;58.30;;;;;;7397190;19;3390;-73
2024/01/04 00:26:49;;;;;;;;;;;17.80;58.30;;;;;;7398030;19;1608;-73
2024/01/04 00:29:15;;;;;;;;;;;17.80;58.30;;;;;;7396616;19;1856;-72
2024/01/04 00:31:41;;;;;;;;;;;17.70;58.30;;;;;;7396277;19;3695;-73
2024/01/04 00:34:06;;;;;;;;;;;17.70;58.40;;;;;;7401017;19;1636;-73
2024/01/04 00:36:32;;;;;;;;;;;17.70;58.40;;;;;;7397006;19;2879;-73
2024/01/04 00:38:57;;;;;;;;;;;17.70;58.40;;;;;;7400162;19;4514;-73
2024/01/04 00:41:23;;;;;;;;;;;17.70;58.40;;;;;;7395721;19;3580;-73
2024/01/04 00:43:48;;;;;;;;;;;17.70;58.50;;;;;;7400782;19;1991;-73
2024/01/04 00:46:14;;;;;;;;;;;17.60;58.40;;;;;;7397768;19;2850;-73
2024/01/04 00:48:39;;;;;;;;;;;17.60;58.30;;;;;;7399626;19;1865;-73
2024/01/04 00:51:05;;;;;;;;;;;17.60;58.40;;;;;;7399420;19;1423;-73
2024/01/04 00:53:30;;;;;;;;;;;17.60;58.50;;;;;;7398881;19;5257;-73
2024/01/04 00:55:56;;;;;;;;;;;17.60;58.50;;;;;;7397751;19;1333;-73
2024/01/04 00:58:21;;;;;;;;;;;17.60;58.50;;;;;;7396315;19;802;-73
2024/01/04 01:00:46;;;;;;;;;;;17.50;58.50;;;;;;7397618;19;2854;-73
2024/01/04 01:03:12;;;;;;;;;;;17.50;58.50;;;;;;7399522;19;1515;-73
2024/01/04 01:05:37;;;;;;;;;;;17.50;58.50;;;;;;7399076;19;1535;-73
2024/01/04 01:08:03;;;;;;;;;;;17.50;58.60;;;;;;7397445;19;3105;-73
2024/01/04 01:10:29;;;;;;;;;;;17.40;58.60;;;;;;7396470;19;2175;-73
2024/01/04 01:12:55;;;;;;;;;;;17.50;58.60;;;;;;7398106;19;1911;-73
2024/01/04 01:15:20;;;;;;;;;;;17.40;58.60;;;;;;7395005;19;2584;-73
2024/01/04 01:17:46;;;;;;;;;;;17.40;58.50;;;;;;7401100;19;1567;-73
2024/01/04 01:20:11;;;;;;;;;;;17.40;58.40;;;;;;7398957;19;1390;-73
2024/01/04 01:22:37;;;;;;;;;;;17.40;58.60;;;;;;7398243;19;5044;-72
2024/01/04 01:25:02;;;;;;;;;;;17.40;58.60;;;;;;7396049;19;2097;-73
2024/01/04 01:27:28;;;;;;;;;;;17.40;58.60;;;;;;7394641;19;3849;-73
2024/01/04 01:29:53;;;;;;;;;;;17.40;58.60;;;;;;7393770;19;4577;-73
2024/01/04 01:32:18;;;;;;;;;;;17.30;58.50;;;;;;7399330;19;1392;-73
2024/01/04 01:34:44;;;;;;;;;;;17.30;58.50;;;;;;7399428;19;1595;-73
2024/01/04 01:37:09;;;;;;;;;;;17.30;58.50;;;;;;7397368;19;4564;-73
2024/01/04 01:39:35;;;;;;;;;;;17.20;58.50;;;;;;7396296;19;1541;-73
2024/01/04 01:42:00;;;;;;;;;;;17.30;58.60;;;;;;7396796;19;1625;-73
2024/01/04 01:44:26;;;;;;;;;;;17.30;58.60;;;;;;7396534;19;2834;-73
2024/01/04 01:46:51;;;;;;;;;;;17.20;58.70;;;;;;7397279;19;1543;-73
2024/01/04 01:49:17;;;;;;;;;;;17.20;58.60;;;;;;7397652;19;1853;-73
2024/01/04 01:51:42;;;;;;;;;;;17.20;58.60;;;;;;7395512;19;2687;-73
2024/01/04 01:54:08;;;;;;;;;;;17.20;58.60;;;;;;7397960;19;1930;-74
2024/01/04 01:56:33;;;;;;;;;;;17.20;58.60;;;;;;7397316;19;1787;-73
2024/01/04 01:58:59;;;;;;;;;;;17.10;58.60;;;;;;7395957;19;4033;-73
2024/01/04 02:01:24;;;;;;;;;;;17.10;58.50;;;;;;7395697;19;4443;-73
2024/01/04 02:03:50;;;;;;;;;;;17.10;58.50;;;;;;7398255;19;1468;-73
2024/01/04 02:06:15;;;;;;;;;;;17.10;58.40;;;;;;7394638;19;4058;-73
2024/01/04 02:08:41;;;;;;;;;;;17.00;58.50;;;;;;7396666;19;1896;-73
2024/01/04 02:11:06;;;;;;;;;;;17.00;58.70;;;;;;7395703;19;1204;-73
2024/01/04 02:13:32;;;;;;;;;;;17.10;58.60;;;;;;7394307;19;2847;-73
2024/01/04 02:15:57;;;;;;;;;;;17.20;58.30;;;;;;7396181;19;2171;-73
2024/01/04 02:18:23;;;;;;;;;;;17.20;58.00;;;;;;7395647;19;2867;-73
2024/01/04 02:20:48;;;;;;;;;;;17.40;58.00;;;;;;7394322;19;3741;-73
2024/01/04 02:23:17;;;;;;;;;;;17.50;57.60;;;;;;7395464;19;1932;-73
2024/01/04 02:25:42;;;;;;;;;;;17.80;57.10;;;;;;7396268;19;1597;-73
2024/01/04 02:28:08;;;;;;;;;;;18.10;56.50;;;;;;7392461;19;2939;-73
2024/01/04 02:30:33;;;;;;;;;;;18.50;55.70;;;;;;7395725;19;1934;-73
2024/01/04 02:33:00;;;;;;;;;;;18.70;55.00;;;;;;7394430;19;2007;-73
2024/01/04 02:35:25;;;;;;;;;;;18.90;54.40;;;;;;7395890;19;4448;-73
2024/01/04 02:37:52;;;;;;;;;;;19.10;54.20;;;;;;7394067;19;1705;-73
2024/01/04 02:40:17;;;;;;;;;;;19.20;54.00;;;;;;7397271;19;3534;-73
2024/01/04 02:42:43;;;;;;;;;;;19.30;53.80;;;;;;7392798;19;2747;-73
2024/01/04 02:45:08;;;;;;;;;;;19.30;53.60;;;;;;7394433;19;2850;-73
2024/01/04 02:47:34;;;;;;;;;;;19.30;53.50;;;;;;7395281;19;1789;-73
2024/01/04 02:50:00;;;;;;;;;;;19.30;53.50;;;;;;7396256;19;2829;-74
2024/01/04 02:52:25;;;;;;;;;;;19.30;53.60;;;;;;7402623;19;1831;-73
2024/01/04 02:54:50;;;;;;;;;;;19.30;53.60;;;;;;7403758;19;2048;-73
2024/01/04 02:57:16;;;;;;;;;;;19.30;53.70;;;;;;7401185;19;3078;-73
2024/01/04 02:59:41;;;;;;;;;;;19.30;53.60;;;;;;7404690;19;2001;-73
2024/01/04 03:02:07;;;;;;;;;;;19.30;53.50;;;;;;7401975;19;1540;-73
2024/01/04 03:04:32;;;;;;;;;;;19.30;53.40;;;;;;7400022;19;3360;-73
2024/01/04 03:06:58;;;;;;;;;;;19.30;53.40;;;;;;7399781;19;2825;-73
2024/01/04 03:09:23;;;;;;;;;;;19.30;53.30;;;;;;7401395;19;2968;-74
2024/01/04 03:11:48;;;;;;;;;;;19.30;53.30;;;;;;7398939;19;3910;-73
2024/01/04 03:14:14;;;;;;;;;;;19.30;53.20;;;;;;7401987;19;2079;-73
2024/01/04 03:16:39;;;;;;;;;;;19.20;53.30;;;;;;7400308;19;1592;-73
2024/01/04 03:19:05;;;;;;;;;;;19.20;53.40;;;;;;7399426;19;2955;-72
2024/01/04 03:21:30;;;;;;;;;;;19.20;53.60;;;;;;7401760;19;1909;-73
2024/01/04 03:23:56;;;;;;;;;;;19.20;53.60;;;;;;7401885;19;2375;-74
2024/01/04 03:26:21;;;;;;;;;;;19.10;53.60;;;;;;7398637;19;3418;-73
2024/01/04 03:28:47;;;;;;;;;;;19.10;53.70;;;;;;7400548;19;1856;-73
2024/01/04 03:31:13;;;;;;;;;;;19.10;53.80;;;;;;7401636;19;2101;-74
2024/01/04 03:33:38;;;;;;;;;;;19.00;54.00;;;;;;7399519;19;2921;-73
2024/01/04 03:36:04;;;;;;;;;;;18.90;54.10;;;;;;7400763;19;1737;-72
2024/01/04 03:38:29;;;;;;;;;;;18.80;54.10;;;;;;7399701;19;2816;-73
2024/01/04 03:40:54;;;;;;;;;;;18.80;54.00;;;;;;7400526;19;2730;-73
2024/01/04 03:43:20;;;;;;;;;;;18.80;54.00;;;;;;7400369;19;2236;-73
2024/01/04 03:45:45;;;;;;;;;;;18.70;54.10;;;;;;7402332;19;1827;-73
2024/01/04 03:48:11;;;;;;;;;;;18.70;54.70;;;;;;7399543;19;4030;-73
2024/01/04 03:50:37;;;;;;;;;;;18.80;54.00;;;;;;7400684;19;1842;-74
2024/01/04 03:53:02;;;;;;;;;;;18.80;54.00;;;;;;7401573;19;1622;-73
2024/01/04 03:55:28;;;;;;;;;;;18.70;53.90;;;;;;7399842;19;3468;-73
2024/01/04 03:57:53;;;;;;;;;;;18.60;54.00;;;;;;7402663;19;1632;-73
2024/01/04 04:00:19;;;;;;;;;;;18.70;54.10;;;;;;7399885;19;1526;-73
2024/01/04 04:02:44;;;;;;;;;;;18.70;54.00;;;;;;7396422;19;2799;-73
2024/01/04 04:05:10;;;;;;;;;;;18.70;53.90;;;;;;7402585;19;1830;-73
2024/01/04 04:07:35;;;;;;;;;;;18.70;54.10;;;;;;7398905;19;3462;-73
2024/01/04 04:10:02;;;;;;;;;;;18.70;53.90;;;;;;7399946;19;3047;-73
2024/01/04 04:12:27;;;;;;;;;;;18.70;53.90;;;;;;7398230;19;1701;-73
2024/01/04 04:14:53;;;;;;;;;;;18.70;53.90;;;;;;7400544;19;2705;-73
2024/01/04 04:17:20;;;;;;;;;;;18.80;54.50;;;;;;7399725;19;3218;-73
2024/01/04 04:19:46;;;;;;;;;;;18.80;53.70;;;;;;7398019;19;1859;-73
2024/01/04 04:22:11;;;;;;;;;;;18.90;53.60;;;;;;7399476;19;2777;-73
2024/01/04 04:24:36;;;;;;;;;;;18.90;53.60;;;;;;7399703;19;2462;-73
2024/01/04 04:27:02;;;;;;;;;;;18.90;53.50;;;;;;7399111;19;2086;-73
2024/01/04 04:29:27;;;;;;;;;;;18.90;53.40;;;;;;7393650;19;4631;-73
2024/01/04 04:31:53;;;;;;;;;;;18.90;53.30;;;;;;7400160;19;2748;-73
2024/01/04 04:34:19;;;;;;;;;;;18.90;53.30;;;;;;7400906;19;1896;-73
2024/01/04 04:36:45;;;;;;;;;;;18.90;53.20;;;;;;7395146;19;3167;-73
2024/01/04 04:39:10;;;;;;;;;;;18.90;53.20;;;;;;7399796;19;3132;-73
2024/01/04 04:41:38;;;;;;;;;;;18.90;53.20;;;;;;7398388;19;1490;-73
2024/01/04 04:44:03;;;;;;;;;;;18.80;53.10;;;;;;7398851;19;2839;-73
2024/01/04 04:46:29;;;;;;;;;;;18.90;53.20;;;;;;7402233;19;3115;-73
2024/01/04 04:48:56;;;;;;;;;;;18.80;53.20;;;;;;7399168;19;1875;-73
2024/01/04 04:51:22;;;;;;;;;;;18.80;53.20;;;;;;7398808;19;2740;-73
2024/01/04 04:53:48;;;;;;;;;;;18.80;53.20;;;;;;7400083;19;1717;-74
2024/01/04 04:56:13;;;;;;;;;;;18.90;53.20;;;;;;7398020;19;1627;-73
2024/01/04 04:58:39;;;;;;;;;;;18.90;53.20;;;;;;7398584;19;4311;-73
2024/01/04 05:01:04;;;;;;;;;;;18.80;53.20;;;;;;7399924;19;3126;-73
2024/01/04 05:03:30;;;;;;;;;;;18.90;53.20;;;;;;7399348;19;3431;-73
2024/01/04 05:05:55;;;;;;;;;;;18.80;53.20;;;;;;7398646;19;2804;-73
2024/01/04 05:08:22;;;;;;;;;;;18.80;53.20;;;;;;7393562;19;3558;-73
2024/01/04 05:10:47;;;;;;;;;;;18.80;53.40;;;;;;7394988;19;3370;-73
2024/01/04 05:13:13;;;;;;;;;;;18.80;53.30;;;;;;7390922;19;3394;-73
2024/01/04 05:15:38;;;;;;;;;;;18.80;53.30;;;;;;7399226;19;1766;-73
2024/01/04 05:18:04;;;;;;;;;;;18.80;53.30;;;;;;7397887;19;1540;-74
2024/01/04 05:20:29;;;;;;;;;;;18.80;53.40;;;;;;7396157;19;4345;-73
2024/01/04 05:22:55;;;;;;;;;;;18.80;53.20;;;;;;7398233;19;1787;-74
2024/01/04 05:25:20;;;;;;;;;;;18.70;53.20;;;;;;7396319;19;1774;-74
2024/01/04 05:27:45;;;;;;;;;;;18.80;53.20;;;;;;7394107;19;4695;-73
2024/01/04 05:30:11;;;;;;;;;;;18.80;53.20;;;;;;7395882;19;2129;-73
2024/01/04 05:32:36;;;;;;;;;;;18.80;53.20;;;;;;7397718;19;1670;-73
2024/01/04 05:35:02;;;;;;;;;;;18.80;53.20;;;;;;7397343;19;4370;-73
2024/01/04 05:37:28;;;;;;;;;;;18.80;53.20;;;;;;7395446;19;1837;-73
2024/01/04 05:39:53;;;;;;;;;;;18.70;53.20;;;;;;7396854;19;2128;-73
2024/01/04 05:42:19;;;;;;;;;;;18.70;53.10;;;;;;7393791;19;3461;-73
2024/01/04 05:44:44;;;;;;;;;;;18.70;53.00;;;;;;7398006;19;1523;-73
2024/01/04 05:47:10;;;;;;;;;;;18.70;53.00;;;;;;7397750;19;1829;-73
2024/01/04 05:49:36;;;;;;;;;;;18.70;53.10;;;;;;7394599;19;4098;-73
2024/01/04 05:52:02;;;;;;;;;;;18.70;53.10;;;;;;7399899;19;1422;-72
2024/01/04 05:54:27;;;;;;;;;;;18.70;53.00;;;;;;7394909;19;2140;-74
2024/01/04 05:56:53;;;;;;;;;;;18.70;52.90;;;;;;7393333;19;3403;-73
2024/01/04 05:59:18;;;;;;;;;;;18.70;53.00;;;;;;7398186;19;1462;-72
2024/01/04 06:01:43;;;;;;;;;;;18.70;53.00;;;;;;7397056;19;1508;-73
2024/01/04 06:04:09;;;;;;;;;;;18.70;53.00;;;;;;7394160;19;3031;-73
2024/01/04 06:06:34;;;;;;;;;;;18.70;53.00;;;;;;7395044;19;2127;-73
2024/01/04 06:09:00;;;;;;;;;;;18.70;53.10;;;;;;7390956;19;2833;-73
2024/01/04 06:11:25;;;;;;;;;;;18.70;53.00;;;;;;7394990;19;3418;-73
2024/01/04 06:13:51;;;;;;;;;;;18.60;53.00;;;;;;7396243;19;1855;-74
2024/01/04 06:16:17;;;;;;;;;;;18.70;52.90;;;;;;7397830;19;1666;-74
2024/01/04 06:18:42;;;;;;;;;;;18.70;52.80;;;;;;7394815;19;2779;-74
2024/01/04 06:21:08;;;;;;;;;;;18.80;52.70;;;;;;7388884;19;3292;-73
2024/01/04 06:23:33;;;;;;;;;;;18.90;52.50;;;;;;7398049;19;1415;-73
2024/01/04 06:25:59;;;;;;;;;;;19.00;52.40;;;;;;7393814;19;2752;-74
2024/01/04 06:28:24;;;;;;;;;;;19.00;52.30;;;;;;7394114;19;1876;-74
2024/01/04 06:30:50;;;;;;;;;;;19.00;52.20;;;;;;7395098;19;1823;-73
2024/01/04 06:33:15;;;;;;;;;;;19.00;52.20;;;;;;7393679;19;2739;-73
2024/01/04 06:35:41;;;;;;;;;;;19.00;52.10;;;;;;7396423;19;1852;-73
2024/01/04 06:38:09;;;;;;;;;;;19.00;52.20;;;;;;7396964;19;1855;-74
2024/01/04 06:40:35;;;;;;;;;;;19.10;52.10;;;;;;7392545;19;3658;-74
2024/01/04 06:43:03;;;;;;;;;;;19.00;52.00;;;;;;7394549;19;2038;-73
2024/01/04 06:45:28;;;;;;;;;;;19.00;52.00;;;;;;7393684;19;2163;-74
2024/01/04 06:47:54;;;;;;;;;;;19.10;52.10;;;;;;7392069;19;2643;-73
2024/01/04 06:50:19;;;;;;;;;;;19.10;52.00;;;;;;7393542;19;2924;-74
2024/01/04 06:52:45;;;;;;;;;;;19.10;52.10;;;;;;7397157;19;2080;-74
2024/01/04 06:55:11;;;;;;;;;;;19.10;51.90;;;;;;7395114;19;3994;-74
2024/01/04 06:57:37;;;;;;;;;;;19.10;51.90;;;;;;7394613;19;2230;-73
2024/01/04 07:00:02;;;;;;;;;;;19.10;51.80;;;;;;7393111;19;2068;-73
2024/01/04 07:02:28;;;;;;;;;;;19.10;51.90;;;;;;7392249;19;3073;-74
2024/01/04 07:04:53;;;;;;;;;;;19.10;51.90;;;;;;7395113;19;1382;-73
2024/01/04 07:07:19;;;;;;;;;;;19.10;51.90;;;;;;7391109;19;2133;-74
2024/01/04 07:09:44;;;;;;;;;;;19.10;51.90;;;;;;7393040;19;3216;-74
2024/01/04 07:12:09;;;;;;;;;;;19.10;51.90;;;;;;7391518;19;2939;-73
2024/01/04 07:14:38;;;;;;;;;;;19.10;51.80;;;;;;7396414;19;1920;-74
2024/01/04 07:17:03;;;;;;;;;;;19.10;51.80;;;;;;7395220;19;3095;-74
2024/01/04 07:19:29;;;;;;;;;;;19.10;51.80;;;;;;7392754;19;3343;-74
2024/01/04 07:21:54;;;;;;;;;;;19.10;51.90;;;;;;7393033;19;2112;-74
2024/01/04 07:24:20;;;;;;;;;;;19.00;51.90;;;;;;7392542;19;3067;-73
2024/01/04 07:26:45;;;;;;;;;;;19.00;52.00;;;;;;7391035;19;2213;-74
2024/01/04 07:29:11;;;;;;;;;;;19.00;51.90;;;;;;7391608;19;1862;-74
2024/01/04 07:31:36;;;;;;;;;;;19.00;51.80;;;;;;7388927;19;3356;-73
2024/01/04 07:34:03;;;;;;;;;;;19.10;51.80;;;;;;7394117;19;2951;-73
2024/01/04 07:36:28;;;;;;;;;;;19.10;51.70;;;;;;7399029;19;1516;-73
2024/01/04 07:38:53;;;;;;;;;;;19.10;51.80;;;;;;7401080;19;4868;-73
2024/01/04 07:41:19;;;;;;;;;;;19.00;51.90;;;;;;7400030;19;3738;-73
2024/01/04 07:43:45;;;;;;;;;;;19.00;51.90;;;;;;7401996;19;3163;-74
2024/01/04 07:46:10;;;;;;;;;;;19.10;51.90;;;;;;7401226;19;4104;-74
2024/01/04 07:48:36;;;;;;;;;;;19.00;51.90;;;;;;7400067;19;1860;-75
2024/01/04 07:51:01;;;;;;;;;;;19.00;51.90;;;;;;7399959;19;1531;-75
2024/01/04 07:53:27;;;;;;;;;;;19.00;52.00;;;;;;7400380;19;3860;-75
2024/01/04 07:55:52;;;;;;;;;;;19.00;51.90;;;;;;7403852;19;1488;-74
2024/01/04 07:58:18;;;;;;;;;;;19.00;51.90;;;;;;7400550;19;1399;-74
2024/01/04 08:00:43;;;;;;;;;;;19.00;51.90;;;;;;7397938;19;4415;-75
2024/01/04 08:03:08;;;;;;;;;;;18.90;52.00;;;;;;7400922;19;3016;-74
2024/01/04 08:05:34;;;;;;;;;;;18.90;52.00;;;;;;7399593;19;1593;-74
2024/01/04 08:07:59;;;;;;;;;;;19.00;52.00;;;;;;7400149;19;2962;-74
2024/01/04 08:10:25;;;;;;;;;;;19.00;51.90;;;;;;7398579;19;2766;-74
2024/01/04 08:12:51;;;;;;;;;;;18.90;51.80;;;;;;7401896;19;1737;-74
2024/01/04 08:15:16;;;;;;;;;;;19.00;51.80;;;;;;7398946;19;4010;-74
2024/01/04 08:17:42;;;;;;;;;;;19.00;51.70;;;;;;7400400;19;1694;-74
2024/01/04 08:20:07;;;;;;;;;;;19.00;51.80;;;;;;7394416;19;2821;-75
2024/01/04 08:22:33;;;;;;;;;;;18.90;51.70;;;;;;7392736;19;5311;-74
2024/01/04 08:24:58;;;;;;;;;;;19.20;51.90;;;;;;7397251;19;2781;-74
2024/01/04 08:27:24;;;;;;;;;;;19.90;50.90;;;;;;7399658;19;2938;-74
2024/01/04 08:29:50;;;;;;;;;;;20.60;49.20;;;;;;7398182;19;4460;-75
2024/01/04 08:32:16;;;;;;;;;;;21.20;48.70;;;;;;7401382;19;851;-74
2024/01/04 08:34:42;;;;;;;;;;;21.60;47.10;;;;;;7397899;19;2740;-74
2024/01/04 08:37:07;;;;;;;;;;;21.80;46.50;;;;;;7400663;19;2639;-75
2024/01/04 08:39:33;;;;;;;;;;;22.00;46.20;;;;;;7399396;19;4384;-74
2024/01/04 08:41:58;;;;;;;;;;;22.10;46.10;;;;;;7396470;19;2956;-75
2024/01/04 08:44:25;;;;;;;;;;;22.20;46.00;;;;;;7391657;19;4542;-74
2024/01/04 08:46:50;;;;;;;;;;;22.30;46.00;;;;;;7389903;19;4612;-75
2024/01/04 08:49:16;;;;;;;;;;;22.30;46.10;;;;;;7396490;19;2636;-74
2024/01/04 08:51:42;;;;;;;;;;;22.40;46.00;;;;;;7390918;19;3511;-74
2024/01/04 08:54:07;;;;;;;;;;;22.50;46.00;;;;;;7394344;19;4503;-73
2024/01/04 08:56:33;;;;;;;;;;;22.50;45.80;;;;;;7395640;19;2707;-74
2024/01/04 08:59:00;;;;;;;;;;;22.60;45.70;;;;;;7395665;19;2706;-74
2024/01/04 09:01:25;;;;;;;;;;;22.60;45.50;;;;;;7394759;19;4471;-73
2024/01/04 09:03:51;;;;;;;;;;;22.70;45.50;;;;;;7398381;19;3419;-74
2024/01/04 09:06:16;;;;;;;;;;;22.70;45.50;;;;;;7395915;19;3870;-75
2024/01/04 09:08:41;;;;;;;;;;;22.70;45.40;;;;;;7398524;19;2045;-74
2024/01/04 09:11:07;;;;;;;;;;;22.70;45.60;;;;;;7391899;19;3218;-76
2024/01/04 09:13:32;;;;;;;;;;;22.60;45.50;;;;;;7396243;19;3175;-74
2024/01/04 09:15:58;;;;;;;;;;;22.60;45.60;;;;;;7388907;19;4593;-73
2024/01/04 09:18:23;;;;;;;;;;;22.50;45.60;;;;;;7394122;19;4733;-75
2024/01/04 09:20:49;;;;;;;;;;;22.60;45.70;;;;;;7392713;19;4600;-73
2024/01/04 09:23:14;;;;;;;;;;;22.60;45.60;;;;;;7396991;19;2812;-73
2024/01/04 09:25:40;;;;;;;;;;;22.60;45.60;;;;;;7397764;19;1803;-74
2024/01/04 09:28:05;;;;;;;;;;;22.60;45.60;;;;;;7393133;19;3708;-74
2024/01/04 09:30:31;;;;;;;;;;;22.60;45.50;;;;;;7394477;19;3563;-73
2024/01/04 09:32:57;;;;;;;;;;;22.60;45.60;;;;;;7393928;19;3279;-73
2024/01/04 09:35:23;;;;;;;;;;;22.60;45.40;;;;;;7390777;19;3680;-74
2024/01/04 09:37:51;;;;;;;;;;;22.60;45.40;;;;;;7395295;19;3160;-73
2024/01/04 09:40:17;;;;;;;;;;;22.70;45.50;;;;;;7393158;19;3595;-73
2024/01/04 09:42:42;;;;;;;;;;;22.60;45.60;;;;;;7395405;19;3509;-73
2024/01/04 09:45:10;;;;;;;;;;;22.60;46.40;;;;;;7397313;19;1616;-73
2024/01/04 09:47:36;;;;;;;;;;;22.50;45.70;;;;;;7394160;19;4177;-73
2024/01/04 09:50:02;;;;;;;;;;;22.50;45.70;;;;;;7395918;19;2980;-73
2024/01/04 09:52:27;;;;;;;;;;;22.50;45.80;;;;;;7396694;19;1928;-73
2024/01/04 09:54:53;;;;;;;;;;;22.50;45.90;;;;;;7392284;19;3471;-73
2024/01/04 09:57:19;;;;;;;;;;;22.50;45.90;;;;;;7394982;19;2970;-74
2024/01/04 09:59:44;;;;;;;;;;;22.40;46.00;;;;;;7391566;19;3132;-73
2024/01/04 10:02:11;;;;;;;;;;;22.40;46.00;;;;;;7393736;19;3641;-73
2024/01/04 10:04:37;;;;;;;;;;;22.50;46.00;;;;;;7394529;19;3041;-74
2024/01/04 10:07:02;;;;;;;;;;;22.50;45.90;;;;;;7397568;19;3369;-74
2024/01/04 10:09:31;;;;;;;;;;;22.60;45.80;;;;;;7395793;19;3983;-73
2024/01/04 10:11:57;;;;;;;;;;;22.50;45.80;;;;;;7397107;19;3908;-73
2024/01/04 10:14:22;;;;;;;;;;;22.50;45.80;;;;;;7397861;19;1879;-73
2024/01/04 10:16:48;;;;;;;;;;;22.50;46.00;;;;;;7393026;19;3621;-73
2024/01/04 10:19:13;;;;;;;;;;;22.40;46.00;;;;;;7394658;19;3062;-73
2024/01/04 10:21:39;;;;;;;;;;;22.50;46.10;;;;;;7394755;19;1535;-74
2024/01/04 10:24:05;;;;;;;;;;;22.50;46.00;;;;;;7391235;19;4778;-73
2024/01/04 10:26:32;;;;;;;;;;;22.50;46.00;;;;;;7394447;19;2148;-73
2024/01/04 10:28:59;;;;;;;;;;;22.50;46.00;;;;;;7392172;19;2598;-73
2024/01/04 10:31:24;;;;;;;;;;;22.50;46.00;;;;;;7393405;19;5321;-73
2024/01/04 10:33:57;;;;;;;;;;;22.50;46.60;;;;;;7388318;19;3662;-73
2024/01/04 10:36:23;;;;;;;;;;;22.50;46.00;;;;;;7393993;19;2590;-73
2024/01/04 10:38:48;;;;;;;;;;;22.50;46.10;;;;;;7393767;19;3558;-73
2024/01/04 10:41:17;;;;;;;;;;;22.50;46.00;;;;;;7392880;19;3270;-73
2024/01/04 10:43:43;;;;;;;;;;;22.50;46.10;;;;;;7395362;19;1600;-73
2024/01/04 10:46:09;;;;;;;;;;;22.50;46.10;;;;;;7392300;19;3740;-73
2024/01/04 10:48:38;;;;;;;;;;;22.40;46.20;;;;;;7393668;19;2751;-74
2024/01/04 10:51:04;;;;;;;;;;;22.50;46.20;;;;;;7395162;19;1628;-74
2024/01/04 10:53:36;;;;;;;;;;;22.50;46.10;;;;;;7390880;19;2908;-74
2024/01/04 10:56:05;;;;;;;;;;;22.60;46.00;;;;;;7395244;19;2931;-75
2024/01/04 10:58:32;;;;;;;;;;;22.60;46.00;;;;;;7390225;19;4042;-75
2024/01/04 11:00:57;;;;;;;;;;;22.60;45.90;;;;;;7390547;19;3671;-75
2024/01/04 11:03:23;;;;;;;;;;;22.50;46.00;;;;;;7386628;19;4519;-74
2024/01/04 11:05:48;;;;;;;;;;;22.60;46.00;;;;;;7389315;19;4414;-74
2024/01/04 11:08:14;;;;;;;;;;;22.50;46.10;;;;;;7389139;19;4599;-74
2024/01/04 11:10:40;;;;;;;;;;;22.60;46.20;;;;;;7387687;19;4497;-74
2024/01/04 11:13:05;;;;;;;;;;;22.50;46.10;;;;;;7398090;19;3599;-74
2024/01/04 11:15:32;;;;;;;;;;;22.50;46.10;;;;;;7396464;19;4684;-74
2024/01/04 11:18:09;;;;;;;;;;;22.50;46.10;;;;;;7398226;19;2504;-74
2024/01/04 11:20:42;;;;;;;;;;;22.40;46.40;;;;;;7398605;19;3046;-75
2024/01/04 11:23:34;;;;;;;;;;;22.50;46.10;;;;;;7397133;19;4674;-74
2024/01/04 11:26:08;;;;;;;;;;;22.40;46.10;;;;;;7394640;19;3544;-74
2024/01/04 11:28:33;;;;;;;;;;;22.40;46.20;;;;;;7401485;19;3677;-74
2024/01/04 11:30:59;;;;;;;;;;;22.30;46.40;;;;;;7399691;19;2990;-75
2024/01/04 11:33:28;;;;;;;;;;;22.20;46.30;;;;;;7401026;19;1440;-74
2024/01/04 11:35:53;;;;;;;;;;;22.20;46.20;;;;;;7399839;19;1611;-75
2024/01/04 11:38:25;;;;;;;;;;;22.20;46.10;;;;;;7401011;19;3884;-75
2024/01/04 11:40:50;;;;;;;;;;;22.20;46.20;;;;;;7397657;19;3486;-74
2024/01/04 11:43:16;;;;;;;;;;;22.20;46.20;;;;;;7402189;19;1329;-75
2024/01/04 11:45:45;;;;;;;;;;;22.20;46.30;;;;;;7396710;19;4006;-74
2024/01/04 11:48:10;;;;;;;;;;;22.30;46.30;;;;;;7399674;19;1845;-74
2024/01/04 11:50:36;;;;;;;;;;;22.30;45.90;;;;;;7402042;19;3021;-75
2024/01/04 11:53:08;;;;;;;;;;;22.30;45.90;;;;;;7393426;19;4149;-73
2024/01/04 11:55:35;;;;;;;;;;;22.30;45.80;;;;;;7402110;19;1668;-74
2024/01/04 11:58:14;;;;;;;;;;;22.30;45.70;;;;;;7399704;19;1540;-74
2024/01/04 12:00:52;;;;;;;;;;;22.30;45.70;;;;;;7398331;19;4473;-74
2024/01/04 12:03:20;;;;;;;;;;;22.30;46.00;;;;;;7400295;19;1517;-74
2024/01/04 12:05:47;;;;;;;;;;;22.40;46.00;;;;;;7402194;19;1791;-74
2024/01/04 12:08:24;;;;;;;;;;;22.30;45.90;;;;;;7392244;19;3701;-75
2024/01/04 12:10:51;;;;;;;;;;;22.40;46.10;;;;;;7399854;19;4193;-75
2024/01/04 12:13:16;;;;;;;;;;;22.40;45.90;;;;;;7397720;19;4386;-75
2024/01/04 12:15:41;;;;;;;;;;;22.30;46.00;;;;;;7395537;19;3676;-74
2024/01/04 12:18:07;;;;;;;;;;;22.30;46.10;;;;;;7388095;19;4600;-74
2024/01/04 12:20:32;;;;;;;;;;;22.30;46.10;;;;;;7396057;19;4426;-75
2024/01/04 12:22:58;;;;;;;;;;;22.50;46.10;;;;;;7399542;19;2586;-75
2024/01/04 12:25:23;;;;;;;;;;;22.60;45.90;;;;;;7394579;19;3342;-75
2024/01/04 12:27:49;;;;;;;;;;;22.60;45.80;;;;;;7396723;19;2761;-74
2024/01/04 12:30:15;;;;;;;;;;;22.60;45.80;;;;;;7396643;19;1837;-75
2024/01/04 12:32:40;;;;;;;;;;;22.60;45.90;;;;;;7398822;19;1551;-75
2024/01/04 12:35:14;;;;;;;;;;;22.50;45.80;;;;;;7394327;19;3168;-74
2024/01/04 12:37:40;;;;;;;;;;;22.60;46.00;;;;;;7396946;19;4584;-74
2024/01/04 12:40:06;;;;;;;;;;;22.60;46.00;;;;;;7396359;19;3848;-74
2024/01/04 12:42:32;;;;;;;;;;;22.70;46.00;;;;;;7399994;19;2588;-75
2024/01/04 12:44:58;;;;;;;;;;;22.70;46.10;;;;;;7400632;19;1431;-74
2024/01/04 12:47:25;;;;;;;;;;;22.70;45.90;;;;;;7394218;19;2569;-75
2024/01/04 12:49:54;;;;;;;;;;;22.70;45.80;;;;;;7396276;19;1845;-75
2024/01/04 12:52:19;;;;;;;;;;;22.70;45.90;;;;;;7397336;19;1611;-74
2024/01/04 12:54:45;;;;;;;;;;;22.70;46.00;;;;;;7394005;19;3137;-74
2024/01/04 12:57:10;;;;;;;;;;;22.60;46.30;;;;;;7392291;19;4642;-74
2024/01/04 12:59:37;;;;;;;;;;;22.60;46.40;;;;;;7395065;19;4525;-74
2024/01/04 13:02:03;;;;;;;;;;;22.60;46.30;;;;;;7392649;19;5968;-74
2024/01/04 13:04:29;;;;;;;;;;;22.70;46.30;;;;;;7390860;19;4583;-74
2024/01/04 13:06:54;;;;;;;;;;;22.60;46.10;;;;;;7398143;19;2747;-74
2024/01/04 13:09:20;;;;;;;;;;;22.60;46.20;;;;;;7392076;19;4373;-75
2024/01/04 13:11:45;;;;;;;;;;;22.50;46.20;;;;;;7391151;19;3706;-75
2024/01/04 13:14:11;;;;;;;;;;;22.70;46.30;;;;;;7396985;19;3463;-74
2024/01/04 13:16:36;;;;;;;;;;;22.60;46.30;;;;;;7399716;19;2017;-75
2024/01/04 13:19:03;;;;;;;;;;;22.60;46.50;;;;;;7393563;19;4504;-74
2024/01/04 13:21:28;;;;;;;;;;;22.70;46.30;;;;;;7398179;19;1670;-75
2024/01/04 13:23:54;;;;;;;;;;;22.70;45.90;;;;;;7397851;19;1480;-74
2024/01/04 13:26:19;;;;;;;;;;;22.70;46.10;;;;;;7396017;19;4227;-74
2024/01/04 13:28:45;;;;;;;;;;;22.70;46.20;;;;;;7389376;19;4711;-74
2024/01/04 13:31:10;;;;;;;;;;;22.60;46.40;;;;;;7390790;19;2241;-74
2024/01/04 13:33:36;;;;;;;;;;;22.50;46.50;;;;;;7385333;19;4425;-74
2024/01/04 13:36:01;;;;;;;;;;;22.60;46.90;;;;;;7393008;19;2829;-74
2024/01/04 13:38:27;;;;;;;;;;;22.70;46.70;;;;;;7397590;19;1892;-74
2024/01/04 13:40:52;;;;;;;;;;;22.70;46.70;;;;;;7393071;19;3751;-74
2024/01/04 13:43:18;;;;;;;;;;;22.70;46.60;;;;;;7397632;19;1447;-74
2024/01/04 13:45:43;;;;;;;;;;;22.70;46.70;;;;;;7396311;19;1529;-74
2024/01/04 13:48:09;;;;;;;;;;;22.60;46.50;;;;;;7392963;19;2659;-74
2024/01/04 13:50:34;;;;;;;;;;;22.60;46.60;;;;;;7397397;19;1524;-74
2024/01/04 13:53:02;;;;;;;;;;;22.60;46.70;;;;;;7396650;19;1427;-75
2024/01/04 13:55:27;;;;;;;;;;;22.60;46.60;;;;;;7393832;19;2742;-75
2024/01/04 13:57:54;;;;;;;;;;;22.70;46.70;;;;;;7396099;19;1903;-74
2024/01/04 14:00:20;;;;;;;;;;;22.70;46.70;;;;;;7395539;19;2081;-75
2024/01/04 14:02:45;;;;;;;;;;;22.60;46.60;;;;;;7394504;19;3327;-75
2024/01/04 14:05:11;;;;;;;;;;;22.70;46.70;;;;;;7397766;19;1252;-75
2024/01/04 14:07:36;;;;;;;;;;;22.70;46.70;;;;;;7394260;19;1473;-74
2024/01/04 14:10:03;;;;;;;;;;;22.60;46.60;;;;;;7391683;19;3519;-74
2024/01/04 14:12:29;;;;;;;;;;;22.60;46.60;;;;;;7393774;19;2362;-74
2024/01/04 14:14:54;;;;;;;;;;;22.70;46.70;;;;;;7398774;19;1595;-75
2024/01/04 14:17:20;;;;;;;;;;;22.70;46.70;;;;;;7395442;19;4190;-74
2024/01/04 14:19:45;;;;;;;;;;;22.50;46.50;;;;;;7396836;19;1540;-75
2024/01/04 14:22:12;;;;;;;;;;;22.70;46.70;;;;;;7391835;19;3987;-74